createdAt,value
2019-02-08T00:00:06.000Z,100016
2019-02-08T00:01:21.000Z,100017
2019-02-08T00:02:21.000Z,100013
2019-02-08T00:03:21.000Z,100013
2019-02-08T00:04:21.000Z,100015
2019-02-08T00:05:52.000Z,100013
2019-02-08T00:07:06.000Z,100014
2019-02-08T00:09:21.000Z,100008
2019-02-08T00:11:06.000Z,100010
2019-02-08T00:12:21.000Z,100017
2019-02-08T00:14:21.000Z,100012
2019-02-08T00:16:21.000Z,100021
2019-02-08T00:18:21.000Z,100021
2019-02-08T00:19:51.000Z,100016
2019-02-08T00:20:52.000Z,100011
2019-02-08T00:22:21.000Z,100010
2019-02-08T00:23:21.000Z,100018
2019-02-08T00:25:21.000Z,100014
2019-02-08T00:27:21.000Z,100012
2019-02-08T00:28:21.000Z,100019
2019-02-08T00:29:21.000Z,100020
2019-02-08T00:31:21.000Z,100027
2019-02-08T00:33:21.000Z,100024
2019-02-08T00:35:21.000Z,100013
2019-02-08T00:37:06.000Z,100018
2019-02-08T00:38:21.000Z,100011
2019-02-08T00:39:21.000Z,100013
2019-02-08T00:41:21.000Z,100017
2019-02-08T00:43:21.000Z,100015
2019-02-08T00:44:21.000Z,100011
2019-02-08T00:46:21.000Z,100013
2019-02-08T00:47:21.000Z,100016
2019-02-08T00:49:21.000Z,100007
2019-02-08T00:50:52.000Z,100015
2019-02-08T00:52:21.000Z,100008
2019-02-08T00:53:21.000Z,100012
2019-02-08T00:55:21.000Z,100021
2019-02-08T00:57:21.000Z,100011
2019-02-08T00:59:06.000Z,100009
2019-02-08T01:00:06.000Z,100009
2019-02-08T01:02:21.000Z,100013
2019-02-08T01:04:21.000Z,100010
2019-02-08T01:05:52.000Z,100007
2019-02-08T01:07:21.000Z,100020
2019-02-08T01:08:21.000Z,100011
2019-02-08T01:10:21.000Z,100013
2019-02-08T01:11:21.000Z,100012
2019-02-08T01:12:51.000Z,100008
2019-02-08T01:14:21.000Z,100015
2019-02-08T01:16:06.000Z,100010
2019-02-08T01:17:21.000Z,100010
2019-02-08T01:19:21.000Z,100014
2019-02-08T01:20:21.000Z,100021
2019-02-08T01:22:06.000Z,100021
2019-02-08T01:24:21.000Z,100017
2019-02-08T01:25:21.000Z,100012
2019-02-08T01:26:21.000Z,100016
2019-02-08T01:28:21.000Z,100008
2019-02-08T01:30:21.000Z,100013
2019-02-08T01:32:21.000Z,100020
2019-02-08T01:33:21.000Z,100019
2019-02-08T01:35:21.000Z,100018
2019-02-08T01:37:21.000Z,100023
2019-02-08T01:39:21.000Z,100022
2019-02-08T01:40:21.000Z,100018
2019-02-08T01:42:21.000Z,100017
2019-02-08T01:44:06.000Z,100021
2019-02-08T01:45:21.000Z,100027
2019-02-08T01:47:06.000Z,100017
2019-02-08T01:48:21.000Z,100016
2019-02-08T01:50:06.000Z,100014
2019-02-08T01:51:06.000Z,100016
2019-02-08T01:53:21.000Z,100017
2019-02-08T01:55:06.000Z,100018
2019-02-08T01:56:21.000Z,100018
2019-02-08T01:57:21.000Z,100014
2019-02-08T01:58:21.000Z,100017
2019-02-08T02:00:06.000Z,100010
2019-02-08T02:01:21.000Z,100007
2019-02-08T02:02:21.000Z,100009
2019-02-08T02:04:21.000Z,100005
2019-02-08T02:06:21.000Z,100006
2019-02-08T02:08:06.000Z,100007
2019-02-08T02:09:21.000Z,100001
2019-02-08T02:10:21.000Z,100008
2019-02-08T02:11:21.000Z,100001
2019-02-08T02:13:21.000Z,99999
2019-02-08T02:15:21.000Z,100006
2019-02-08T02:17:06.000Z,100003
2019-02-08T02:18:21.000Z,100008
2019-02-08T02:20:21.000Z,100007
2019-02-08T02:22:21.000Z,100012
2019-02-08T02:23:52.000Z,100006
2019-02-08T02:25:21.000Z,100013
2019-02-08T02:26:21.000Z,100008
2019-02-08T02:28:21.000Z,100011
2019-02-08T02:30:21.000Z,100015
2019-02-08T02:32:21.000Z,100016
2019-02-08T02:34:21.000Z,100018
2019-02-08T02:35:21.000Z,100010
2019-02-08T02:37:21.000Z,100020
2019-02-08T02:39:21.000Z,100016
2019-02-08T02:41:21.000Z,100016
2019-02-08T02:43:06.000Z,100015
2019-02-08T02:44:22.000Z,100019
2019-02-08T02:46:21.000Z,100019
2019-02-08T02:48:21.000Z,100017
2019-02-08T02:50:06.000Z,100023
2019-02-08T02:51:21.000Z,100027
2019-02-08T02:52:21.000Z,100016
2019-02-08T02:53:21.000Z,100020
2019-02-08T02:55:21.000Z,100018
2019-02-08T02:57:21.000Z,100027
2019-02-08T02:58:21.000Z,100013
2019-02-08T03:00:21.000Z,100022
2019-02-08T03:02:21.000Z,100013
2019-02-08T03:04:21.000Z,100016
2019-02-08T03:06:06.000Z,100010
2019-02-08T03:07:21.000Z,100017
2019-02-08T03:08:21.000Z,100016
2019-02-08T03:10:21.000Z,100018
2019-02-08T03:12:21.000Z,100013
2019-02-08T03:14:06.000Z,100013
2019-02-08T03:15:21.000Z,100010
2019-02-08T03:16:21.000Z,100011
2019-02-08T03:18:21.000Z,100017
2019-02-08T03:20:21.000Z,100017
2019-02-08T03:22:21.000Z,100022
2019-02-08T03:23:21.000Z,100019
2019-02-08T03:25:21.000Z,100006
2019-02-08T03:26:21.000Z,100007
2019-02-08T03:28:21.000Z,100006
2019-02-08T03:29:21.000Z,100005
2019-02-08T03:31:21.000Z,100007
2019-02-08T03:33:21.000Z,100011
2019-02-08T03:35:21.000Z,99997
2019-02-08T03:36:21.000Z,99997
2019-02-08T03:38:21.000Z,99995
2019-02-08T03:39:21.000Z,99997
2019-02-08T03:41:21.000Z,100001
2019-02-08T03:43:06.000Z,99992
2019-02-08T03:45:21.000Z,99996
2019-02-08T03:46:21.000Z,99996
2019-02-08T03:48:21.000Z,99993
2019-02-08T03:49:21.000Z,99987
2019-02-08T03:51:21.000Z,99987
2019-02-08T03:53:21.000Z,99980
2019-02-08T03:54:21.000Z,99983
2019-02-08T03:55:21.000Z,99989
2019-02-08T03:57:21.000Z,99987
2019-02-08T03:58:21.000Z,99989
2019-02-08T03:59:21.000Z,99988
2019-02-08T04:01:21.000Z,99992
2019-02-08T04:02:21.000Z,99992
2019-02-08T04:03:21.000Z,99995
2019-02-08T04:05:06.000Z,99989
2019-02-08T04:06:21.000Z,99985
2019-02-08T04:08:21.000Z,99995
2019-02-08T04:10:21.000Z,99993
2019-02-08T04:12:21.000Z,99984
2019-02-08T04:13:21.000Z,99992
2019-02-08T04:14:21.000Z,99993
2019-02-08T04:16:06.000Z,99987
2019-02-08T04:17:06.000Z,99988
2019-02-08T04:18:21.000Z,99980
2019-02-08T04:20:21.000Z,99975
2019-02-08T04:21:21.000Z,99978
2019-02-08T04:23:21.000Z,99976
2019-02-08T04:25:21.000Z,99969
2019-02-08T04:26:21.000Z,99976
2019-02-08T04:28:21.000Z,99978
2019-02-08T04:29:21.000Z,99975
2019-02-08T04:31:21.000Z,99974
2019-02-08T04:32:51.000Z,99978
2019-02-08T04:34:21.000Z,99978
2019-02-08T04:36:21.000Z,99980
2019-02-08T04:38:21.000Z,99978
2019-02-08T04:40:21.000Z,99972
2019-02-08T04:41:51.000Z,99976
2019-02-08T04:43:21.000Z,99968
2019-02-08T04:44:21.000Z,99972
2019-02-08T04:46:21.000Z,99970
2019-02-08T04:48:21.000Z,99968
2019-02-08T04:49:21.000Z,99966
2019-02-08T04:51:21.000Z,99963
2019-02-08T04:53:21.000Z,99963
2019-02-08T04:55:21.000Z,99961
2019-02-08T04:56:21.000Z,99960
2019-02-08T04:57:21.000Z,99962
2019-02-08T04:59:21.000Z,99951
2019-02-08T05:00:21.000Z,99961
2019-02-08T05:02:21.000Z,99953
2019-02-08T05:04:21.000Z,99956
2019-02-08T05:05:21.000Z,99974
2019-02-08T05:06:21.000Z,99950
2019-02-08T05:08:21.000Z,99955
2019-02-08T05:09:21.000Z,99950
2019-02-08T05:11:21.000Z,99952
2019-02-08T05:13:21.000Z,99944
2019-02-08T05:15:21.000Z,99943
2019-02-08T05:17:21.000Z,99953
2019-02-08T05:18:21.000Z,99948
2019-02-08T05:20:21.000Z,99953
2019-02-08T05:21:21.000Z,99953
2019-02-08T05:23:21.000Z,99954
2019-02-08T05:25:21.000Z,99950
2019-02-08T05:26:21.000Z,99946
2019-02-08T05:27:21.000Z,99951
2019-02-08T05:29:21.000Z,99946
2019-02-08T05:31:21.000Z,99950
2019-02-08T05:33:21.000Z,99948
2019-02-08T05:35:21.000Z,99942
2019-02-08T05:37:21.000Z,99950
2019-02-08T05:38:21.000Z,99941
2019-02-08T05:40:21.000Z,99945
2019-02-08T05:41:21.000Z,99948
2019-02-08T05:42:21.000Z,99966
2019-02-08T05:44:21.000Z,99948
2019-02-08T05:45:21.000Z,99953
2019-02-08T05:47:21.000Z,99944
2019-02-08T05:49:06.000Z,99943
2019-02-08T05:50:21.000Z,99939
2019-02-08T05:52:21.000Z,99962
2019-02-08T05:54:06.000Z,99950
2019-02-08T05:56:21.000Z,99942
2019-02-08T05:57:21.000Z,99932
2019-02-08T05:59:21.000Z,99932
2019-02-08T06:00:21.000Z,99926
2019-02-08T06:01:21.000Z,99927
2019-02-08T06:02:51.000Z,99928
2019-02-08T06:04:21.000Z,99923
2019-02-08T06:06:21.000Z,99927
2019-02-08T06:08:06.000Z,99923
2019-02-08T06:09:21.000Z,99923
2019-02-08T06:11:21.000Z,99921
2019-02-08T06:12:21.000Z,99926
2019-02-08T06:13:21.000Z,99922
2019-02-08T06:14:21.000Z,99926
2019-02-08T06:16:22.000Z,99927
2019-02-08T06:18:22.000Z,99928
2019-02-08T06:20:06.000Z,99927
2019-02-08T06:21:06.000Z,99932
2019-02-08T06:22:22.000Z,99926
2019-02-08T06:23:22.000Z,99928
2019-02-08T06:25:22.000Z,99931
2019-02-08T06:27:22.000Z,99934
2019-02-08T06:28:22.000Z,99932
2019-02-08T06:30:22.000Z,99927
2019-02-08T06:32:22.000Z,99928
2019-02-08T06:33:22.000Z,99921
2019-02-08T06:35:22.000Z,99924
2019-02-08T06:36:22.000Z,99924
2019-02-08T06:38:22.000Z,99925
2019-02-08T06:40:22.000Z,99927
2019-02-08T06:42:06.000Z,99933
2019-02-08T06:43:07.000Z,99926
2019-02-08T06:44:22.000Z,99924
2019-02-08T06:45:22.000Z,99926
2019-02-08T06:46:22.000Z,99934
2019-02-08T06:48:22.000Z,99928
2019-02-08T06:50:22.000Z,99926
2019-02-08T06:51:22.000Z,99930
2019-02-08T06:53:22.000Z,99928
2019-02-08T06:54:22.000Z,99928
2019-02-08T06:55:52.000Z,99924
2019-02-08T06:57:22.000Z,99917
2019-02-08T06:58:22.000Z,99920
2019-02-08T07:00:22.000Z,99925
2019-02-08T07:02:22.000Z,99928
2019-02-08T07:04:22.000Z,99932
2019-02-08T07:06:22.000Z,99926
2019-02-08T07:08:22.000Z,99930
2019-02-08T07:09:22.000Z,99930
2019-02-08T07:11:22.000Z,99930
2019-02-08T07:12:22.000Z,99929
2019-02-08T07:14:22.000Z,99939
2019-02-08T07:16:22.000Z,99936
2019-02-08T07:17:51.000Z,99925
2019-02-08T07:19:22.000Z,99924
2019-02-08T07:21:21.000Z,99924
2019-02-08T07:22:21.000Z,99928
2019-02-08T07:24:21.000Z,99929
2019-02-08T07:25:21.000Z,99921
2019-02-08T07:27:21.000Z,99931
2019-02-08T07:29:21.000Z,99924
2019-02-08T07:31:21.000Z,99932
2019-02-08T07:33:21.000Z,99932
2019-02-08T07:35:21.000Z,99941
2019-02-08T07:37:21.000Z,99931
2019-02-08T07:39:21.000Z,99934
2019-02-08T07:41:21.000Z,99938
2019-02-08T07:43:06.000Z,99928
2019-02-08T07:45:21.000Z,99927
2019-02-08T07:47:21.000Z,99935
2019-02-08T07:49:21.000Z,99935
2019-02-08T07:50:21.000Z,99938
2019-02-08T07:52:21.000Z,99928
2019-02-08T07:53:21.000Z,99928
2019-02-08T07:55:06.000Z,99934
2019-02-08T07:56:21.000Z,99932
2019-02-08T07:58:21.000Z,99930
2019-02-08T08:00:21.000Z,99929
2019-02-08T08:02:21.000Z,99927
2019-02-08T08:04:21.000Z,99952
2019-02-08T08:05:21.000Z,99944
2019-02-08T08:07:21.000Z,99940
2019-02-08T08:09:21.000Z,99949
2019-02-08T08:11:21.000Z,99945
2019-02-08T08:12:21.000Z,99929
2019-02-08T08:14:21.000Z,99939
2019-02-08T08:16:21.000Z,99934
2019-02-08T08:17:21.000Z,99936
2019-02-08T08:19:21.000Z,99922
2019-02-08T08:21:06.000Z,99932
2019-02-08T08:22:06.000Z,99930
2019-02-08T08:23:21.000Z,99935
2019-02-08T08:24:22.000Z,99925
2019-02-08T08:26:22.000Z,99931
2019-02-08T08:28:22.000Z,99927
2019-02-08T08:29:22.000Z,99923
2019-02-08T08:31:06.000Z,99916
2019-02-08T08:32:22.000Z,99919
2019-02-08T08:34:22.000Z,99912
2019-02-08T08:35:22.000Z,99914
2019-02-08T08:37:22.000Z,99924
2019-02-08T08:39:22.000Z,99914
2019-02-08T08:41:06.000Z,99914
2019-02-08T08:42:22.000Z,99916
2019-02-08T08:43:22.000Z,99920
2019-02-08T08:45:22.000Z,99914
2019-02-08T08:46:22.000Z,99910
2019-02-08T08:48:22.000Z,99911
2019-02-08T08:50:22.000Z,99914
2019-02-08T08:51:22.000Z,99920
2019-02-08T08:53:22.000Z,99911
2019-02-08T08:54:22.000Z,99911
2019-02-08T08:56:22.000Z,99907
2019-02-08T08:58:22.000Z,99910
2019-02-08T09:00:22.000Z,99906
2019-02-08T09:01:22.000Z,99915
2019-02-08T09:02:22.000Z,99902
2019-02-08T09:04:22.000Z,99896
2019-02-08T09:06:07.000Z,99893
2019-02-08T09:08:22.000Z,99902
2019-02-08T09:10:22.000Z,99893
2019-02-08T09:11:22.000Z,99901
2019-02-08T09:13:07.000Z,99898
2019-02-08T09:15:22.000Z,99892
2019-02-08T09:17:22.000Z,99896
2019-02-08T09:19:22.000Z,99897
2019-02-08T09:21:22.000Z,99885
2019-02-08T09:22:22.000Z,99896
2019-02-08T09:23:51.000Z,99892
2019-02-08T09:25:22.000Z,99898
2019-02-08T09:27:06.000Z,99892
2019-02-08T09:28:07.000Z,99894
2019-02-08T09:29:21.000Z,99883
2019-02-08T09:30:21.000Z,99879
2019-02-08T09:32:21.000Z,99885
2019-02-08T09:34:21.000Z,99878
2019-02-08T09:36:21.000Z,99884
2019-02-08T09:37:21.000Z,99892
2019-02-08T09:39:21.000Z,99873
2019-02-08T09:40:21.000Z,99876
2019-02-08T09:42:06.000Z,99880
2019-02-08T09:43:06.000Z,99882
2019-02-08T09:44:21.000Z,99892
2019-02-08T09:46:21.000Z,99883
2019-02-08T09:47:21.000Z,99896
2019-02-08T09:48:21.000Z,99901
2019-02-08T09:50:21.000Z,99911
2019-02-08T09:52:21.000Z,99924
2019-02-08T09:53:21.000Z,99920
2019-02-08T09:54:21.000Z,99896
2019-02-08T09:55:51.000Z,99914
2019-02-08T09:57:21.000Z,99882
2019-02-08T09:58:21.000Z,99893
2019-02-08T10:00:06.000Z,99900
2019-02-08T10:01:21.000Z,99889
2019-02-08T10:02:21.000Z,99869
2019-02-08T10:04:21.000Z,99868
2019-02-08T10:05:21.000Z,99872
2019-02-08T10:07:06.000Z,99864
2019-02-08T10:08:21.000Z,99869
2019-02-08T10:09:21.000Z,99864
2019-02-08T10:11:21.000Z,99863
2019-02-08T10:13:21.000Z,99874
2019-02-08T10:15:06.000Z,99875
2019-02-08T10:16:21.000Z,99897
2019-02-08T10:17:21.000Z,99870
2019-02-08T10:19:21.000Z,99867
2019-02-08T10:20:21.000Z,99867
2019-02-08T10:22:21.000Z,99867
2019-02-08T10:24:06.000Z,99848
2019-02-08T10:25:21.000Z,99854
2019-02-08T10:27:06.000Z,99856
2019-02-08T10:28:21.000Z,99857
2019-02-08T10:30:21.000Z,99846
2019-02-08T10:31:51.000Z,99841
2019-02-08T10:33:21.000Z,99850
2019-02-08T10:35:21.000Z,99838
2019-02-08T10:36:21.000Z,99864
2019-02-08T10:38:21.000Z,99839
2019-02-08T10:40:21.000Z,99852
2019-02-08T10:42:21.000Z,99850
2019-02-08T10:43:21.000Z,99857
2019-02-08T10:45:21.000Z,99850
2019-02-08T10:46:21.000Z,99858
2019-02-08T10:47:21.000Z,99858
2019-02-08T10:49:06.000Z,99860
2019-02-08T10:50:21.000Z,99863
2019-02-08T10:51:21.000Z,99861
2019-02-08T10:53:21.000Z,99857
2019-02-08T10:55:21.000Z,99861
2019-02-08T10:57:06.000Z,99853
2019-02-08T10:58:21.000Z,99862
2019-02-08T11:00:06.000Z,99852
2019-02-08T11:01:21.000Z,99849
2019-02-08T11:02:21.000Z,99844
2019-02-08T11:03:21.000Z,99856
2019-02-08T11:05:21.000Z,99835
2019-02-08T11:07:21.000Z,99834
2019-02-08T11:09:21.000Z,99824
2019-02-08T11:11:21.000Z,99836
2019-02-08T11:13:21.000Z,99830
2019-02-08T11:14:21.000Z,99821
2019-02-08T11:16:21.000Z,99819
2019-02-08T11:18:21.000Z,99812
2019-02-08T11:20:21.000Z,99803
2019-02-08T11:21:51.000Z,99809
2019-02-08T11:23:06.000Z,99800
2019-02-08T11:24:21.000Z,99797
2019-02-08T11:25:51.000Z,99796
2019-02-08T11:27:21.000Z,99789
2019-02-08T11:28:21.000Z,99788
2019-02-08T11:29:21.000Z,99779
2019-02-08T11:30:21.000Z,99791
2019-02-08T11:32:21.000Z,99772
2019-02-08T11:33:21.000Z,99770
2019-02-08T11:35:21.000Z,99770
2019-02-08T11:36:21.000Z,99758
2019-02-08T11:38:21.000Z,99757
2019-02-08T11:40:21.000Z,99765
2019-02-08T11:41:21.000Z,99764
2019-02-08T11:43:06.000Z,99751
2019-02-08T11:44:21.000Z,99760
2019-02-08T11:45:21.000Z,99749
2019-02-08T11:47:06.000Z,99751
2019-02-08T11:48:21.000Z,99751
2019-02-08T11:50:06.000Z,99748
2019-02-08T11:51:21.000Z,99746
2019-02-08T11:53:06.000Z,99746
2019-02-08T11:54:21.000Z,99745
2019-02-08T11:56:21.000Z,99751
2019-02-08T11:57:21.000Z,99775
2019-02-08T11:58:21.000Z,99772
2019-02-08T11:59:21.000Z,99755
2019-02-08T12:00:51.000Z,99754
2019-02-08T12:02:21.000Z,99794
2019-02-08T12:04:21.000Z,99754
2019-02-08T12:06:21.000Z,99747
2019-02-08T12:08:21.000Z,99741
2019-02-08T12:10:21.000Z,99753
2019-02-08T12:11:21.000Z,99757
2019-02-08T12:12:21.000Z,99740
2019-02-08T12:14:21.000Z,99740
2019-02-08T12:15:21.000Z,99743
2019-02-08T12:17:06.000Z,99712
2019-02-08T12:18:21.000Z,99737
2019-02-08T12:20:21.000Z,99740
2019-02-08T12:21:21.000Z,99727
2019-02-08T12:23:21.000Z,99726
2019-02-08T12:25:07.000Z,99705
2019-02-08T12:26:21.000Z,99705
2019-02-08T12:28:21.000Z,99719
2019-02-08T12:30:06.000Z,99723
2019-02-08T12:31:21.000Z,99695
2019-02-08T12:33:21.000Z,99697
2019-02-08T12:35:06.000Z,99694
2019-02-08T12:36:06.000Z,99697
2019-02-08T12:37:21.000Z,99693
2019-02-08T12:38:21.000Z,99697
2019-02-08T12:40:21.000Z,99685
2019-02-08T12:42:06.000Z,99694
2019-02-08T12:43:21.000Z,99704
2019-02-08T12:44:21.000Z,99706
2019-02-08T12:46:21.000Z,99720
2019-02-08T12:48:06.000Z,99683
2019-02-08T12:49:21.000Z,99688
2019-02-08T12:50:21.000Z,99696
2019-02-08T12:52:21.000Z,99693
2019-02-08T12:53:21.000Z,99702
2019-02-08T12:55:21.000Z,99701
2019-02-08T12:56:21.000Z,99683
2019-02-08T12:58:21.000Z,99675
2019-02-08T13:00:21.000Z,99681
2019-02-08T13:02:21.000Z,99684
2019-02-08T13:03:21.000Z,99695
2019-02-08T13:04:21.000Z,99681
2019-02-08T13:06:21.000Z,99672
2019-02-08T13:08:21.000Z,99662
2019-02-08T13:10:06.000Z,99667
2019-02-08T13:11:21.000Z,99672
2019-02-08T13:13:21.000Z,99666
2019-02-08T13:14:51.000Z,99658
2019-02-08T13:16:21.000Z,99675
2019-02-08T13:17:21.000Z,99643
2019-02-08T13:19:06.000Z,99648
2019-02-08T13:20:21.000Z,99643
2019-02-08T13:22:21.000Z,99639
2019-02-08T13:23:21.000Z,99637
2019-02-08T13:24:21.000Z,99638
2019-02-08T13:25:21.000Z,99637
2019-02-08T13:26:51.000Z,99635
2019-02-08T13:29:21.000Z,99637
2019-02-08T13:30:21.000Z,99644
2019-02-08T13:32:21.000Z,99637
2019-02-08T13:34:21.000Z,99643
2019-02-08T13:35:51.000Z,99629
2019-02-08T13:37:21.000Z,99633
2019-02-08T13:38:21.000Z,99628
2019-02-08T13:40:21.000Z,99624
2019-02-08T13:41:21.000Z,99619
2019-02-08T13:43:21.000Z,99616
2019-02-08T13:45:21.000Z,99603
2019-02-08T13:47:06.000Z,99622
2019-02-08T13:48:21.000Z,99599
2019-02-08T13:50:21.000Z,99598
2019-02-08T13:52:06.000Z,99599
2019-02-08T13:53:21.000Z,99596
2019-02-08T13:54:21.000Z,99608
2019-02-08T13:56:21.000Z,99591
2019-02-08T13:58:21.000Z,99588
2019-02-08T14:00:21.000Z,99588
2019-02-08T14:02:21.000Z,99587
2019-02-08T14:04:21.000Z,99593
2019-02-08T14:05:21.000Z,99596
2019-02-08T14:06:21.000Z,99586
2019-02-08T14:08:21.000Z,99597
2019-02-08T14:09:21.000Z,99593
2019-02-08T14:11:21.000Z,99583
2019-02-08T14:12:21.000Z,99578
2019-02-08T14:13:21.000Z,99600
2019-02-08T14:14:21.000Z,99583
2019-02-08T14:16:21.000Z,99569
2019-02-08T14:18:21.000Z,99574
2019-02-08T14:19:21.000Z,99581
2019-02-08T14:21:21.000Z,99568
2019-02-08T14:23:21.000Z,99567
2019-02-08T14:25:06.000Z,99569
2019-02-08T14:26:21.000Z,99565
2019-02-08T14:28:06.000Z,99553
2019-02-08T14:29:21.000Z,99557
2019-02-08T14:30:21.000Z,99550
2019-02-08T14:31:51.000Z,99544
2019-02-08T14:33:21.000Z,99538
2019-02-08T14:34:21.000Z,99545
2019-02-08T14:36:21.000Z,99549
2019-02-08T14:38:21.000Z,99544
2019-02-08T14:39:21.000Z,99535
2019-02-08T14:41:21.000Z,99535
2019-02-08T14:42:21.000Z,99526
2019-02-08T14:44:06.000Z,99522
2019-02-08T14:45:21.000Z,99523
2019-02-08T14:47:21.000Z,99519
2019-02-08T14:48:21.000Z,99515
2019-02-08T14:50:21.000Z,99530
2019-02-08T14:52:21.000Z,99543
2019-02-08T14:54:21.000Z,99538
2019-02-08T14:56:21.000Z,99515
2019-02-08T14:58:21.000Z,99523
2019-02-08T15:00:21.000Z,99526
2019-02-08T15:02:21.000Z,99502
2019-02-08T15:04:06.000Z,99506
2019-02-08T15:06:21.000Z,99513
2019-02-08T15:07:21.000Z,99522
2019-02-08T15:09:06.000Z,99501
2019-02-08T15:10:21.000Z,99501
2019-02-08T15:12:21.000Z,99507
2019-02-08T15:13:21.000Z,99505
2019-02-08T15:15:21.000Z,99504
2019-02-08T15:16:21.000Z,99495
2019-02-08T15:18:21.000Z,99494
2019-02-08T15:20:06.000Z,99486
2019-02-08T15:21:21.000Z,99484
2019-02-08T15:23:21.000Z,99490
2019-02-08T15:25:21.000Z,99493
2019-02-08T15:27:21.000Z,99484
2019-02-08T15:29:06.000Z,99490
2019-02-08T15:30:21.000Z,99491
2019-02-08T15:31:21.000Z,99484
2019-02-08T15:33:21.000Z,99484
2019-02-08T15:34:21.000Z,99490
2019-02-08T15:36:21.000Z,99486
2019-02-08T15:38:21.000Z,99473
2019-02-08T15:39:21.000Z,99467
2019-02-08T15:40:21.000Z,99463
2019-02-08T15:42:06.000Z,99467
2019-02-08T15:43:21.000Z,99470
2019-02-08T15:45:06.000Z,99472
2019-02-08T15:46:21.000Z,99459
2019-02-08T15:48:21.000Z,99461
2019-02-08T15:50:21.000Z,99466
2019-02-08T15:52:21.000Z,99458
2019-02-08T15:54:22.000Z,99472
2019-02-08T15:55:22.000Z,99463
2019-02-08T15:57:07.000Z,99462
2019-02-08T15:58:22.000Z,99459
2019-02-08T16:00:07.000Z,99457
2019-02-08T16:01:22.000Z,99453
2019-02-08T16:02:22.000Z,99462
2019-02-08T16:03:22.000Z,99472
2019-02-08T16:05:22.000Z,99456
2019-02-08T16:07:07.000Z,99444
2019-02-08T16:08:22.000Z,99444
2019-02-08T16:09:22.000Z,99442
2019-02-08T16:11:22.000Z,99438
2019-02-08T16:13:07.000Z,99443
2019-02-08T16:14:22.000Z,99439
2019-02-08T16:15:22.000Z,99437
2019-02-08T16:17:22.000Z,99437
2019-02-08T16:19:22.000Z,99417
2019-02-08T16:21:07.000Z,99405
2019-02-08T16:22:22.000Z,99412
2019-02-08T16:23:22.000Z,99418
2019-02-08T16:25:22.000Z,99411
2019-02-08T16:27:07.000Z,99422
2019-02-08T16:28:22.000Z,99418
2019-02-08T16:29:22.000Z,99415
2019-02-08T16:31:22.000Z,99416
2019-02-08T16:33:07.000Z,99416
2019-02-08T16:34:22.000Z,99418
2019-02-08T16:36:22.000Z,99416
2019-02-08T16:38:22.000Z,99404
2019-02-08T16:40:22.000Z,99404
2019-02-08T16:41:22.000Z,99409
2019-02-08T16:43:22.000Z,99401
2019-02-08T16:44:22.000Z,99396
2019-02-08T16:46:22.000Z,99399
2019-02-08T16:48:22.000Z,99397
2019-02-08T16:50:22.000Z,99405
2019-02-08T16:52:22.000Z,99390
2019-02-08T16:53:52.000Z,99397
2019-02-08T16:55:22.000Z,99393
2019-02-08T16:56:22.000Z,99388
2019-02-08T16:57:21.000Z,99403
2019-02-08T16:59:21.000Z,99396
2019-02-08T17:00:21.000Z,99399
2019-02-08T17:02:06.000Z,99381
2019-02-08T17:03:21.000Z,99381
2019-02-08T17:05:21.000Z,99385
2019-02-08T17:07:21.000Z,99382
2019-02-08T17:08:21.000Z,99376
2019-02-08T17:10:21.000Z,99372
2019-02-08T17:11:21.000Z,99368
2019-02-08T17:13:06.000Z,99353
2019-02-08T17:14:21.000Z,99357
2019-02-08T17:15:21.000Z,99352
2019-02-08T17:16:21.000Z,99347
2019-02-08T17:18:21.000Z,99350
2019-02-08T17:20:21.000Z,99350
2019-02-08T17:22:21.000Z,99358
2019-02-08T17:24:21.000Z,99350
2019-02-08T17:26:21.000Z,99345
2019-02-08T17:27:51.000Z,99337
2019-02-08T17:29:06.000Z,99340
2019-02-08T17:30:21.000Z,99329
2019-02-08T17:32:21.000Z,99332
2019-02-08T17:34:21.000Z,99322
2019-02-08T17:36:06.000Z,99325
2019-02-08T17:37:21.000Z,99319
2019-02-08T17:39:21.000Z,99319
2019-02-08T17:41:21.000Z,99315
2019-02-08T17:43:06.000Z,99306
2019-02-08T17:45:21.000Z,99305
2019-02-08T17:46:21.000Z,99303
2019-02-08T17:47:21.000Z,99308
2019-02-08T17:48:21.000Z,99305
2019-02-08T17:50:21.000Z,99307
2019-02-08T17:51:21.000Z,99309
2019-02-08T17:53:21.000Z,99304
2019-02-08T17:54:21.000Z,99303
2019-02-08T17:56:21.000Z,99297
2019-02-08T17:58:06.000Z,99293
2019-02-08T17:59:21.000Z,99289
2019-02-08T18:01:06.000Z,99296
2019-02-08T18:02:22.000Z,99286
2019-02-08T18:03:22.000Z,99291
2019-02-08T18:05:22.000Z,99286
2019-02-08T18:07:22.000Z,99283
2019-02-08T18:08:22.000Z,99281
2019-02-08T18:10:22.000Z,99287
2019-02-08T18:12:06.000Z,99288
2019-02-08T18:13:22.000Z,99298
2019-02-08T18:15:22.000Z,99294
2019-02-08T18:17:22.000Z,99283
2019-02-08T18:19:22.000Z,99286
2019-02-08T18:21:06.000Z,99275
2019-02-08T18:22:22.000Z,99273
2019-02-08T18:24:06.000Z,99260
2019-02-08T18:25:22.000Z,99276
2019-02-08T18:26:22.000Z,99284
2019-02-08T18:28:07.000Z,99272
2019-02-08T18:30:22.000Z,99275
2019-02-08T18:31:22.000Z,99272
2019-02-08T18:33:22.000Z,99275
2019-02-08T18:35:22.000Z,99271
2019-02-08T18:37:22.000Z,99260
2019-02-08T18:38:22.000Z,99255
2019-02-08T18:40:22.000Z,99268
2019-02-08T18:41:22.000Z,99260
2019-02-08T18:43:22.000Z,99258
2019-02-08T18:44:22.000Z,99260
2019-02-08T18:45:22.000Z,99265
2019-02-08T18:47:22.000Z,99248
2019-02-08T18:48:22.000Z,99257
2019-02-08T18:50:22.000Z,99255
2019-02-08T18:52:06.000Z,99247
2019-02-08T18:53:22.000Z,99251
2019-02-08T18:55:22.000Z,99249
2019-02-08T18:57:22.000Z,99238
2019-02-08T18:59:22.000Z,99242
2019-02-08T19:00:22.000Z,99231
2019-02-08T19:02:22.000Z,99226
2019-02-08T19:04:22.000Z,99224
2019-02-08T19:06:21.000Z,99226
2019-02-08T19:08:06.000Z,99229
2019-02-08T19:09:21.000Z,99224
2019-02-08T19:11:21.000Z,99217
2019-02-08T19:13:06.000Z,99218
2019-02-08T19:14:21.000Z,99215
2019-02-08T19:15:21.000Z,99211
2019-02-08T19:16:21.000Z,99215
2019-02-08T19:18:21.000Z,99217
2019-02-08T19:20:06.000Z,99207
2019-02-08T19:21:21.000Z,99207
2019-02-08T19:23:06.000Z,99211
2019-02-08T19:25:21.000Z,99205
2019-02-08T19:26:21.000Z,99206
2019-02-08T19:27:21.000Z,99193
2019-02-08T19:29:21.000Z,99198
2019-02-08T19:31:06.000Z,99203
2019-02-08T19:32:21.000Z,99195
2019-02-08T19:34:21.000Z,99190
2019-02-08T19:36:21.000Z,99188
2019-02-08T19:37:21.000Z,99174
2019-02-08T19:38:21.000Z,99182
2019-02-08T19:40:21.000Z,99182
2019-02-08T19:42:06.000Z,99182
2019-02-08T19:43:21.000Z,99177
2019-02-08T19:45:21.000Z,99167
2019-02-08T19:47:21.000Z,99172
2019-02-08T19:49:21.000Z,99162
2019-02-08T19:50:21.000Z,99163
2019-02-08T19:52:21.000Z,99147
2019-02-08T19:54:21.000Z,99133
2019-02-08T19:55:21.000Z,99124
2019-02-08T19:57:21.000Z,99125
2019-02-08T19:59:21.000Z,99135
2019-02-08T20:01:21.000Z,99118
2019-02-08T20:02:21.000Z,99137
2019-02-08T20:03:21.000Z,99132
2019-02-08T20:05:21.000Z,99128
2019-02-08T20:06:21.000Z,99135
2019-02-08T20:08:21.000Z,99128
2019-02-08T20:09:21.000Z,99125
2019-02-08T20:11:21.000Z,99112
2019-02-08T20:13:21.000Z,99122
2019-02-08T20:14:21.000Z,99128